NCAR-RAP Real-Time Weather Data

Output produced by METARs form (01 December 2020  18:41 UTC)
found at http://weather.rap.ucar.edu/surface/
 
KCAO 011655Z AUTO 34017G23KT 10SM CLR 11/M12 A2989 RMK AO2 PK WND 34026/1631 SLP107 T01111122
KCAO 011555Z AUTO 33012G21KT 10SM CLR 09/M12 A2988 RMK AO2 SLP105 T00941122
KCAO 011455Z AUTO 31007KT 10SM CLR 07/M13 A2989 RMK AO2 SLP110 T00721128 53003
KCAO 011355Z AUTO 32011KT 10SM CLR M01/M13 A2988 RMK AO2 SLP126 T10061133
KCAO 011255Z AUTO 33005KT 10SM CLR M03/M13 A2987 RMK AO2 SLP123 T10281133
KCAO 011155Z AUTO 29005KT 10SM CLR 01/M14 A2988 RMK AO2 SLP118 T00111144 10017 21056 56013
KCAO 011055Z AUTO 28008KT 10SM CLR 00/M14 A2988 RMK AO2 SLP112 T00001139
KCAO 010955Z AUTO 25007KT 10SM CLR 01/M13 A2989 RMK AO2 SLP110 T00111133
KCAO 010855Z AUTO 28006KT 10SM CLR M02/M12 A2992 RMK AO2 SLP127 T10171122 56017
KCAO 010755Z AUTO 28005KT 10SM CLR M02/M12 A2994 RMK AO2 SLP134 T10221122
KCAO 010655Z AUTO 30008KT 10SM CLR M01/M11 A2996 RMK AO2 SLP144 T10061111 401061083
KCAO 010555Z AUTO 26010KT 10SM CLR 00/M11 A2998 RMK AO2 SLP152 T00001106 10044 21006 58011
KCAO 010455Z AUTO 26008KT 10SM CLR 02/M10 A2999 RMK AO2 SLP157 T00171100
KCAO 010355Z AUTO 26011KT 10SM CLR 02/M09 A3001 RMK AO2 SLP166 T00221094